Time;durP1;ratioP1;P1;durP2;ratioP2;P2;SDS_P1;SDS_P2;PMS_P1;PMS_P2;Temp;Humidity;BMP_temperature;BMP_pressure;BME280_temperature;BME280_humidity;BME280_pressure;Samples;Min_cycle;Max_cycle;Signal;HPM_P1;HPM_P2
2021/06/23 00:01:01;;;;;;;6.10;5.70;;;18.60;99.90;;;;;;5031746;28;20253;-69
2021/06/23 00:03:26;;;;;;;5.50;5.00;;;18.70;99.90;;;;;;5031916;28;20209;-70
2021/06/23 00:05:52;;;;;;;5.90;5.07;;;18.70;99.90;;;;;;5031725;28;20313;-70
2021/06/23 00:08:17;;;;;;;7.57;6.30;;;18.70;99.90;;;;;;5031556;28;20190;-68
2021/06/23 00:10:44;;;;;;;5.40;5.10;;;18.70;99.90;;;;;;5031672;28;20167;-70
2021/06/23 00:13:09;;;;;;;7.70;6.43;;;18.80;99.90;;;;;;5031723;28;20631;-70
2021/06/23 00:15:37;;;;;;;8.60;6.80;;;18.70;99.90;;;;;;5031610;28;20475;-70
2021/06/23 00:18:04;;;;;;;8.50;7.70;;;18.60;99.90;;;;;;5031607;28;20536;-70
2021/06/23 00:20:30;;;;;;;7.03;6.53;;;18.60;99.90;;;;;;5031383;28;20468;-70
2021/06/23 00:22:55;;;;;;;7.63;7.13;;;18.60;99.90;;;;;;5031887;28;20822;-70
2021/06/23 00:25:22;;;;;;;8.07;7.37;;;18.60;99.90;;;;;;5031553;28;20412;-69
2021/06/23 00:27:47;;;;;;;7.97;7.20;;;18.60;99.90;;;;;;5031614;28;20675;-69
2021/06/23 00:30:14;;;;;;;7.93;7.20;;;18.50;99.90;;;;;;5031748;28;20500;-70
2021/06/23 00:32:41;;;;;;;8.33;7.53;;;18.60;99.90;;;;;;5031602;28;20258;-70
2021/06/23 00:35:09;;;;;;;8.07;7.27;;;18.60;99.90;;;;;;5031496;28;20542;-70
2021/06/23 00:37:34;;;;;;;6.90;6.20;;;18.60;99.90;;;;;;5031527;28;20814;-70
2021/06/23 00:40:00;;;;;;;7.83;6.10;;;18.60;99.90;;;;;;5031240;28;20478;-70
2021/06/23 00:42:26;;;;;;;8.27;7.30;;;18.60;99.90;;;;;;5031481;28;20628;-70
2021/06/23 00:44:52;;;;;;;8.00;7.40;;;18.60;99.90;;;;;;5031315;28;20174;-70
2021/06/23 00:47:17;;;;;;;7.47;6.77;;;18.60;99.90;;;;;;5031311;28;20233;-70
2021/06/23 00:49:43;;;;;;;9.17;8.20;;;18.40;99.90;;;;;;5031203;28;20179;-69
2021/06/23 00:52:09;;;;;;;7.70;7.00;;;18.40;99.90;;;;;;5031371;28;20261;-70
2021/06/23 00:54:35;;;;;;;9.07;8.03;;;18.40;99.90;;;;;;5031403;28;20167;-70
2021/06/23 00:57:05;;;;;;;7.70;7.00;;;18.40;99.90;;;;;;5031230;28;20425;-70
2021/06/23 00:59:31;;;;;;;8.20;7.50;;;18.50;99.90;;;;;;5030858;28;20261;-70
2021/06/23 01:01:58;;;;;;;8.53;7.30;;;18.60;99.90;;;;;;5031306;28;20425;-70
2021/06/23 01:04:24;;;;;;;10.23;9.13;;;18.60;99.90;;;;;;5031516;28;20421;-69
2021/06/23 01:06:50;;;;;;;8.30;7.60;;;18.40;99.90;;;;;;5031145;28;20464;-70
2021/06/23 01:09:16;;;;;;;8.87;7.67;;;18.40;99.90;;;;;;5031459;28;20852;-70
2021/06/23 01:12:23;;;;;;;9.37;8.57;;;18.30;99.90;;;;;;5034627;28;20493;-70
2021/06/23 01:14:52;;;;;;;9.00;8.10;;;18.20;99.90;;;;;;4986067;28;20243;-70
2021/06/23 01:17:20;;;;;;;10.67;8.50;;;18.40;99.90;;;;;;5034570;28;20499;-71
2021/06/23 01:19:47;;;;;;;10.03;9.13;;;18.40;99.90;;;;;;5034355;28;20516;-70
2021/06/23 01:22:16;;;;;;;9.27;8.43;;;18.50;99.90;;;;;;5034451;28;20421;-70
2021/06/23 01:24:43;;;;;;;10.00;9.07;;;18.50;99.90;;;;;;5034630;28;20413;-69
2021/06/23 01:27:10;;;;;;;9.53;8.63;;;18.50;99.90;;;;;;5034235;28;21051;-70
2021/06/23 01:29:37;;;;;;;10.13;9.23;;;18.50;99.90;;;;;;5034238;28;20922;-70
2021/06/23 01:32:05;;;;;;;8.97;8.20;;;18.50;99.90;;;;;;5034327;28;20490;-70
2021/06/23 01:34:31;;;;;;;9.20;8.40;;;18.50;99.90;;;;;;5034322;28;20841;-69
2021/06/23 01:36:56;;;;;;;10.33;8.33;;;18.40;99.90;;;;;;5034114;28;20466;-70
2021/06/23 01:39:22;;;;;;;9.30;8.50;;;18.20;99.90;;;;;;5034030;28;20257;-70
2021/06/23 01:41:47;;;;;;;9.43;8.13;;;18.20;99.90;;;;;;5034178;28;20257;-69
2021/06/23 01:44:13;;;;;;;9.40;8.50;;;18.10;99.90;;;;;;5034188;28;20178;-70
2021/06/23 01:46:38;;;;;;;9.63;8.83;;;18.10;99.90;;;;;;5033925;28;20205;-70
2021/06/23 01:49:04;;;;;;;9.17;7.80;;;18.20;99.90;;;;;;5033768;28;20204;-69
2021/06/23 01:51:30;;;;;;;9.83;8.93;;;18.30;99.90;;;;;;5033935;28;20546;-70
2021/06/23 01:53:55;;;;;;;9.20;8.33;;;18.20;99.90;;;;;;5032760;28;20554;-70
2021/06/23 01:56:21;;;;;;;7.80;7.10;;;18.30;99.90;;;;;;5032711;28;20233;-70
2021/06/23 01:58:46;;;;;;;8.40;7.70;;;18.30;99.90;;;;;;5033457;28;20635;-71
2021/06/23 02:01:48;;;;;;;9.10;8.30;;;18.40;99.90;;;;;;5033994;28;20253;-70
2021/06/23 02:04:42;;;;;;;9.37;8.20;;;18.30;99.90;;;;;;5034023;28;20162;-70
2021/06/23 02:07:44;;;;;;;8.90;8.10;;;18.00;99.90;;;;;;5029579;28;20603;-70
2021/06/23 02:10:43;;;;;;;10.87;8.47;;;18.00;99.90;;;;;;5033426;28;20409;-70
2021/06/23 02:13:50;;;;;;;9.23;8.30;;;18.10;99.90;;;;;;5033617;28;20824;-70
2021/06/23 02:16:17;;;;;;;8.87;8.27;;;18.20;99.90;;;;;;5033612;28;20985;-70
2021/06/23 02:18:43;;;;;;;10.07;9.07;;;18.20;99.90;;;;;;5033097;28;20519;-70
2021/06/23 02:21:08;;;;;;;11.43;8.90;;;18.20;99.90;;;;;;5033394;28;20441;-70
2021/06/23 02:23:41;;;;;;;10.33;8.70;;;18.10;99.90;;;;;;5033408;28;20917;-70
2021/06/23 02:26:06;;;;;;;9.60;8.80;;;18.00;99.90;;;;;;5033301;28;20297;-70
2021/06/23 02:28:32;;;;;;;14.73;9.80;;;18.00;99.90;;;;;;5032916;28;20888;-70
2021/06/23 02:30:58;;;;;;;11.17;9.43;;;17.90;99.90;;;;;;5033247;28;20170;-70
2021/06/23 02:33:24;;;;;;;10.03;9.20;;;17.90;99.90;;;;;;5033168;28;20914;-69
2021/06/23 02:35:53;;;;;;;8.90;8.10;;;17.80;99.90;;;;;;5033173;28;20467;-69
2021/06/23 02:38:19;;;;;;;12.17;9.07;;;17.80;99.90;;;;;;5031723;28;20528;-70
2021/06/23 02:40:45;;;;;;;9.63;8.93;;;17.80;99.90;;;;;;5033084;28;20947;-69
2021/06/23 02:43:11;;;;;;;10.87;9.97;;;17.70;99.90;;;;;;5032923;28;20206;-69
2021/06/23 02:45:36;;;;;;;11.43;10.53;;;17.70;99.90;;;;;;5032725;28;20475;-70
2021/06/23 02:48:02;;;;;;;12.10;10.03;;;17.60;99.90;;;;;;5032898;28;20194;-70
2021/06/23 02:50:32;;;;;;;9.30;8.50;;;17.70;99.90;;;;;;5032723;28;20178;-69
2021/06/23 02:52:59;;;;;;;9.93;9.13;;;17.70;99.90;;;;;;5032899;28;20514;-70
2021/06/23 02:55:25;;;;;;;8.33;7.73;;;17.60;99.90;;;;;;5032939;28;20925;-70
2021/06/23 02:57:52;;;;;;;13.30;12.20;;;17.60;99.90;;;;;;5032605;28;20515;-70
2021/06/23 03:00:18;;;;;;;14.97;13.57;;;17.50;99.90;;;;;;5032403;28;20871;-70
2021/06/23 03:02:43;;;;;;;14.60;13.10;;;17.40;99.90;;;;;;5032705;28;20448;-70
2021/06/23 03:05:09;;;;;;;15.30;13.83;;;17.40;99.90;;;;;;5032638;28;20927;-70
2021/06/23 03:07:35;;;;;;;13.80;12.50;;;17.30;99.90;;;;;;5032467;28;20332;-70
2021/06/23 03:10:09;;;;;;;13.80;12.60;;;17.30;99.90;;;;;;5032230;28;20448;-70
2021/06/23 03:12:35;;;;;;;14.47;13.27;;;17.30;99.90;;;;;;5032535;28;20193;-70
2021/06/23 03:15:01;;;;;;;13.93;12.70;;;17.20;99.90;;;;;;5032433;28;20850;-70
2021/06/23 03:17:26;;;;;;;12.77;11.53;;;17.20;99.90;;;;;;5032475;28;20194;-70
2021/06/23 03:19:52;;;;;;;13.97;12.57;;;17.20;99.90;;;;;;5032137;28;20220;-70
2021/06/23 03:22:18;;;;;;;13.70;12.40;;;17.30;99.90;;;;;;5032417;28;20206;-69
2021/06/23 03:24:44;;;;;;;11.47;10.37;;;17.40;99.90;;;;;;5032391;28;20877;-70
2021/06/23 03:27:09;;;;;;;11.87;10.30;;;17.40;99.90;;;;;;5032049;28;20285;-70
2021/06/23 03:29:36;;;;;;;12.03;8.73;;;17.50;99.90;;;;;;5031924;28;20235;-70
2021/06/23 03:32:04;;;;;;;10.83;10.00;;;17.40;99.90;;;;;;5031944;28;20165;-70
2021/06/23 03:34:30;;;;;;;10.83;9.80;;;17.40;99.90;;;;;;5032190;28;20456;-70
2021/06/23 03:36:55;;;;;;;10.80;9.70;;;17.50;99.90;;;;;;5032216;28;20869;-70
2021/06/23 03:39:21;;;;;;;10.63;9.60;;;17.50;99.90;;;;;;5030604;28;20213;-70
2021/06/23 03:41:47;;;;;;;9.17;8.47;;;17.50;99.90;;;;;;5032083;28;20201;-70
2021/06/23 03:44:13;;;;;;;8.97;8.17;;;17.60;99.90;;;;;;5032198;28;20634;-70
2021/06/23 03:46:39;;;;;;;10.53;9.00;;;17.70;99.90;;;;;;5088700;22;20690;-71
2021/06/23 03:49:05;;;;;;;11.20;9.80;;;17.60;99.90;;;;;;5071567;28;20180;-70
2021/06/23 03:51:31;;;;;;;8.33;7.63;;;17.60;99.90;;;;;;5071889;28;20537;-70
2021/06/23 03:53:57;;;;;;;8.80;8.10;;;17.70;99.90;;;;;;5071901;28;20498;-70
2021/06/23 03:56:22;;;;;;;9.47;8.67;;;17.70;99.90;;;;;;5072036;28;20245;-70
2021/06/23 03:58:48;;;;;;;9.47;8.73;;;17.70;99.90;;;;;;5071481;28;20650;-70
2021/06/23 04:01:14;;;;;;;9.40;8.60;;;17.70;99.90;;;;;;5071809;28;20187;-71
2021/06/23 04:03:40;;;;;;;9.20;8.40;;;17.80;99.90;;;;;;5071791;28;20180;-70
2021/06/23 04:06:05;;;;;;;10.30;8.80;;;17.90;99.90;;;;;;5071581;28;20256;-71
2021/06/23 04:08:31;;;;;;;10.17;9.37;;;17.80;99.90;;;;;;5071504;28;20540;-70
2021/06/23 04:10:57;;;;;;;9.70;9.00;;;17.90;99.90;;;;;;5071833;28;20646;-70
2021/06/23 04:13:22;;;;;;;8.83;8.07;;;18.00;99.90;;;;;;5071671;28;20638;-71
2021/06/23 04:15:48;;;;;;;9.10;8.20;;;18.10;99.90;;;;;;5070283;28;20437;-70
2021/06/23 04:18:13;;;;;;;10.43;9.43;;;18.20;99.90;;;;;;5071441;28;20187;-71
2021/06/23 04:20:39;;;;;;;9.67;8.93;;;18.20;99.90;;;;;;5071387;28;20177;-70
2021/06/23 04:23:05;;;;;;;9.53;8.73;;;18.00;99.90;;;;;;5071854;28;20252;-70
2021/06/23 04:25:31;;;;;;;10.33;9.47;;;17.90;99.90;;;;;;5071444;28;20434;-70
2021/06/23 04:27:56;;;;;;;12.57;11.47;;;17.70;99.90;;;;;;5071474;28;20169;-71
2021/06/23 04:30:22;;;;;;;9.97;8.97;;;17.70;99.90;;;;;;5071322;28;20638;-70
2021/06/23 04:32:48;;;;;;;10.00;9.07;;;17.70;99.90;;;;;;5071434;28;20518;-70
2021/06/23 04:35:13;;;;;;;10.73;9.83;;;17.90;99.90;;;;;;5071657;28;20198;-70
2021/06/23 04:37:41;;;;;;;10.63;9.77;;;18.00;99.90;;;;;;5071744;28;20180;-70
2021/06/23 04:40:10;;;;;;;11.63;9.60;;;18.20;99.90;;;;;;5071131;28;20176;-71
2021/06/23 04:42:37;;;;;;;10.80;9.80;;;18.30;99.90;;;;;;5070030;28;20419;-70
2021/06/23 04:45:07;;;;;;;11.13;10.13;;;18.40;99.90;;;;;;5072823;28;20554;-70
2021/06/23 04:47:33;;;;;;;8.90;8.30;;;18.60;99.90;;;;;;5075082;28;20865;-70
2021/06/23 04:49:59;;;;;;;7.93;7.27;;;18.70;99.90;;;;;;5074832;28;20540;-71
2021/06/23 04:52:25;;;;;;;8.63;7.97;;;18.80;99.90;;;;;;5089393;28;20520;-70
2021/06/23 04:54:50;;;;;;;8.90;8.03;;;18.80;99.90;;;;;;5095301;28;20169;-70
2021/06/23 04:57:16;;;;;;;8.87;8.17;;;18.90;99.90;;;;;;5094263;28;20169;-71
2021/06/23 04:59:42;;;;;;;5.77;5.10;;;19.10;99.90;;;;;;5073281;28;20175;-70
2021/06/23 05:02:07;;;;;;;6.67;6.07;;;19.30;99.90;;;;;;5077493;28;20670;-70
2021/06/23 05:04:34;;;;;;;4.93;4.63;;;19.40;99.90;;;;;;5074848;28;20176;-70
2021/06/23 05:07:04;;;;;;;5.40;3.90;;;19.50;99.90;;;;;;5074849;28;20196;-71
2021/06/23 05:09:31;;;;;;;4.50;4.10;;;19.70;99.90;;;;;;5074651;28;20820;-70
2021/06/23 05:11:56;;;;;;;3.60;3.30;;;19.70;99.90;;;;;;5073281;28;20419;-71
2021/06/23 05:14:22;;;;;;;3.50;3.20;;;19.80;99.90;;;;;;5074544;28;20468;-71
2021/06/23 05:16:50;;;;;;;2.57;2.40;;;20.00;99.90;;;;;;5074747;28;20232;-71
2021/06/23 05:19:16;;;;;;;2.30;2.10;;;19.90;99.90;;;;;;5073064;28;20486;-71
2021/06/23 05:21:42;;;;;;;4.43;1.90;;;19.90;99.90;;;;;;5074476;28;20433;-71
2021/06/23 05:24:08;;;;;;;2.00;1.90;;;19.90;99.90;;;;;;5074563;28;20415;-71
2021/06/23 05:26:34;;;;;;;3.97;2.43;;;19.90;99.90;;;;;;5074218;28;20207;-70
2021/06/23 05:28:59;;;;;;;2.30;2.10;;;19.80;99.90;;;;;;5074056;28;20931;-71
2021/06/23 05:31:25;;;;;;;3.00;2.00;;;19.80;99.90;;;;;;5074292;28;20638;-71
2021/06/23 05:33:51;;;;;;;2.70;2.50;;;19.90;99.90;;;;;;5074593;28;20173;-71
2021/06/23 05:36:16;;;;;;;2.43;1.83;;;19.90;99.90;;;;;;5074211;28;20189;-71
2021/06/23 05:38:42;;;;;;;1.87;1.77;;;20.00;99.90;;;;;;5074269;28;20777;-71
2021/06/23 05:41:08;;;;;;;2.27;2.17;;;20.10;99.90;;;;;;5074139;28;20538;-71
2021/06/23 05:43:33;;;;;;;2.97;1.60;;;20.40;99.90;;;;;;5074025;28;20293;-71
2021/06/23 05:45:59;;;;;;;2.40;2.00;;;20.50;99.90;;;;;;5074132;28;20287;-71
2021/06/23 05:48:24;;;;;;;1.73;1.63;;;20.70;99.90;;;;;;5073717;28;20192;-71
2021/06/23 05:50:50;;;;;;;2.23;2.03;;;20.80;99.90;;;;;;5074047;28;20173;-71
2021/06/23 05:53:16;;;;;;;2.03;1.83;;;20.80;99.90;;;;;;5073863;28;20180;-71
2021/06/23 05:55:41;;;;;;;2.43;1.57;;;20.80;99.90;;;;;;5074900;28;20200;-71
2021/06/23 05:58:08;;;;;;;1.93;1.83;;;20.70;99.90;;;;;;5077893;28;20169;-71
2021/06/23 06:00:35;;;;;;;5.40;2.63;;;20.60;99.90;;;;;;5081589;28;20641;-71
2021/06/23 06:03:02;;;;;;;2.00;1.60;;;20.60;99.90;;;;;;5088654;28;20927;-71
2021/06/23 06:05:27;;;;;;;1.50;1.40;;;20.50;99.90;;;;;;5080859;28;20504;-71
2021/06/23 06:07:53;;;;;;;1.90;1.80;;;20.80;99.90;;;;;;5085574;28;20458;-71
2021/06/23 06:10:19;;;;;;;2.10;1.90;;;21.00;99.90;;;;;;5084833;28;20226;-71
2021/06/23 06:12:45;;;;;;;1.67;1.57;;;21.20;99.90;;;;;;5081420;28;20204;-71
2021/06/23 06:15:11;;;;;;;2.17;1.70;;;21.40;99.90;;;;;;5073561;28;20193;-70
2021/06/23 06:17:37;;;;;;;2.57;1.67;;;21.70;99.90;;;;;;5073416;28;20422;-72
2021/06/23 06:20:05;;;;;;;2.13;1.93;;;21.80;99.90;;;;;;5071875;28;20568;-70
2021/06/23 06:22:32;;;;;;;1.97;1.87;;;21.40;99.90;;;;;;5073044;28;20177;-71
2021/06/23 06:24:58;;;;;;;2.63;2.13;;;21.50;99.90;;;;;;5073288;28;20454;-71
2021/06/23 06:27:23;;;;;;;2.43;2.33;;;21.70;99.90;;;;;;5073056;28;20454;-71
2021/06/23 06:29:49;;;;;;;3.73;2.00;;;22.00;99.90;;;;;;5073054;28;20165;-71
2021/06/23 06:32:15;;;;;;;2.13;2.00;;;22.20;99.90;;;;;;5058338;28;20223;-71
2021/06/23 06:34:40;;;;;;;2.33;2.23;;;22.40;99.90;;;;;;5053060;28;20423;-71
2021/06/23 06:37:06;;;;;;;4.10;2.80;;;22.50;99.90;;;;;;5051841;28;20174;-71
2021/06/23 06:39:31;;;;;;;2.80;1.90;;;22.40;99.90;;;;;;5052694;28;20704;-68
2021/06/23 06:41:57;;;;;;;2.57;2.47;;;22.50;99.90;;;;;;5053387;28;20212;-69
2021/06/23 06:44:23;;;;;;;3.03;2.83;;;22.40;99.90;;;;;;5052957;28;20184;-66
2021/06/23 06:46:48;;;;;;;3.37;3.17;;;22.40;99.90;;;;;;5052685;28;20306;-67
2021/06/23 06:49:14;;;;;;;3.00;2.80;;;22.30;99.90;;;;;;5052547;28;20416;-68
2021/06/23 06:51:40;;;;;;;3.80;2.80;;;22.40;99.90;;;;;;5058750;28;20183;-67
2021/06/23 06:54:05;;;;;;;3.10;2.90;;;22.80;99.90;;;;;;5069852;28;20642;-67
2021/06/23 06:56:31;;;;;;;3.30;3.10;;;22.90;99.90;;;;;;5071692;28;20560;-67
2021/06/23 06:58:56;;;;;;;3.50;3.20;;;23.10;99.90;;;;;;5070592;28;20247;-68
2021/06/23 07:01:22;;;;;;;3.10;2.83;;;23.30;99.90;;;;;;5052675;28;20661;-67
2021/06/23 07:03:48;;;;;;;2.97;2.60;;;23.60;99.90;;;;;;5071572;28;20215;-67
2021/06/23 07:06:14;;;;;;;2.73;2.53;;;23.90;99.90;;;;;;5070491;28;20196;-67
2021/06/23 07:08:39;;;;;;;3.20;3.00;;;24.00;99.90;;;;;;5071496;28;20418;-68
2021/06/23 07:11:05;;;;;;;3.10;2.77;;;23.80;99.90;;;;;;5072040;28;20550;-67
2021/06/23 07:13:31;;;;;;;3.60;2.50;;;23.90;99.90;;;;;;5085255;28;20173;-67
2021/06/23 07:15:56;;;;;;;2.70;2.60;;;23.70;99.90;;;;;;5092499;28;20192;-67
2021/06/23 07:18:22;;;;;;;3.37;3.07;;;24.20;99.90;;;;;;5092313;28;20175;-69
2021/06/23 07:20:47;;;;;;;3.73;3.03;;;24.20;99.90;;;;;;5092451;28;20172;-67
2021/06/23 07:23:12;;;;;;;2.83;2.73;;;23.80;99.90;;;;;;5092483;28;20528;-68
2021/06/23 07:25:38;;;;;;;2.70;2.50;;;23.90;99.90;;;;;;5092121;28;20184;-67
2021/06/23 07:28:04;;;;;;;4.30;2.50;;;24.00;99.90;;;;;;5092621;28;20165;-68
2021/06/23 07:30:30;;;;;;;3.07;2.77;;;24.00;99.90;;;;;;5092106;28;20168;-68
2021/06/23 07:33:02;;;;;;;2.90;2.70;;;24.30;99.90;;;;;;5092755;28;20168;-67
2021/06/23 07:38:23;;;;;;;5.30;3.17;;;25.20;99.90;;;;;;5019328;28;20425;-67
2021/06/23 07:40:57;;;;;;;3.00;2.80;;;25.60;99.90;;;;;;5092238;28;20414;-68
2021/06/23 07:43:22;;;;;;;2.90;2.30;;;25.50;99.90;;;;;;5092284;28;20187;-68
2021/06/23 07:45:51;;;;;;;2.63;2.40;;;25.10;99.90;;;;;;5091981;28;20534;-67
2021/06/23 07:48:20;;;;;;;2.50;2.30;;;25.20;99.90;;;;;;5091923;28;20255;-68
2021/06/23 07:51:02;;;;;;;3.20;2.20;;;25.60;99.90;;;;;;5092029;28;20444;-68
2021/06/23 07:53:31;;;;;;;4.00;2.67;;;26.00;99.90;;;;;;5092040;28;20972;-68
2021/06/23 07:56:24;;;;;;;2.70;2.60;;;26.30;99.90;;;;;;5086575;28;20473;-69
2021/06/23 08:09:54;;;;;;;3.70;2.30;;;27.20;99.90;;;;;;5071581;28;20426;-69
2021/06/23 08:12:26;;;;;;;2.80;2.70;;;27.90;99.90;;;;;;5071749;28;20995;-69
2021/06/23 08:14:52;;;;;;;2.80;2.60;;;28.30;99.90;;;;;;5071621;28;20427;-69
2021/06/23 08:17:18;;;;;;;2.60;2.17;;;28.60;99.90;;;;;;5071722;28;20411;-69
2021/06/23 08:19:44;;;;;;;5.50;2.60;;;28.70;99.90;;;;;;5074175;28;20433;-69
2021/06/23 08:22:12;;;;;;;2.10;1.90;;;28.70;99.90;;;;;;5075681;28;20540;-69
2021/06/23 08:24:39;;;;;;;2.33;2.10;;;28.30;99.90;;;;;;5075546;28;20190;-68
2021/06/23 08:27:06;;;;;;;5.40;3.27;;;28.50;99.90;;;;;;5075491;28;20454;-68
2021/06/23 08:29:31;;;;;;;2.23;2.13;;;27.70;99.90;;;;;;5075307;28;20419;-69
2021/06/23 08:31:57;;;;;;;4.63;2.30;;;27.80;99.90;;;;;;5075544;28;20991;-69
2021/06/23 08:34:25;;;;;;;3.67;3.30;;;28.00;99.90;;;;;;5075306;28;20180;-69
2021/06/23 08:36:51;;;;;;;6.47;2.93;;;28.50;99.90;;;;;;5075431;28;20208;-69
2021/06/23 08:39:16;;;;;;;6.20;2.60;;;29.20;99.90;;;;;;5075078;28;20954;-69
2021/06/23 08:41:42;;;;;;;3.27;3.07;;;29.10;99.90;;;;;;5075307;28;20168;-68
2021/06/23 08:44:08;;;;;;;2.77;2.57;;;29.00;99.90;;;;;;5075328;28;20593;-68
2021/06/23 08:46:37;;;;;;;2.93;2.73;;;29.40;99.90;;;;;;5059775;28;20455;-69
2021/06/23 08:49:04;;;;;;;3.00;2.80;;;29.80;99.90;;;;;;5054839;28;20193;-68
2021/06/23 08:51:31;;;;;;;3.33;3.03;;;30.10;99.90;;;;;;5060701;28;20441;-69
2021/06/23 08:53:56;;;;;;;3.87;2.70;;;30.50;99.90;;;;;;5074985;28;20411;-69
2021/06/23 08:56:22;;;;;;;3.90;2.40;;;30.80;99.50;;;;;;5075267;28;20947;-69
2021/06/23 08:58:48;;;;;;;3.10;2.90;;;30.70;99.00;;;;;;5074617;28;20184;-68
2021/06/23 09:01:13;;;;;;;2.70;2.27;;;30.20;99.40;;;;;;5074930;28;20668;-69
2021/06/23 09:04:11;;;;;;;3.77;2.30;;;29.50;99.80;;;;;;5074735;28;20179;-69
2021/06/23 09:06:45;;;;;;;2.97;2.77;;;29.10;99.80;;;;;;5074579;28;20201;-69
2021/06/23 09:09:28;;;;;;;3.37;3.17;;;28.70;99.90;;;;;;5074623;28;20442;-68
2021/06/23 09:11:56;;;;;;;3.07;2.87;;;28.20;99.90;;;;;;5074457;28;20897;-69
2021/06/23 09:14:23;;;;;;;4.50;3.33;;;27.70;99.90;;;;;;5074084;28;20449;-69
2021/06/23 09:17:09;;;;;;;2.83;2.50;;;27.50;99.90;;;;;;5074547;28;20445;-69
2021/06/23 09:19:50;;;;;;;2.83;2.63;;;27.60;99.90;;;;;;5074460;28;20418;-69
2021/06/23 09:22:36;;;;;;;3.27;2.60;;;27.90;99.90;;;;;;5074477;28;20421;-68
2021/06/23 09:25:10;;;;;;;3.60;3.30;;;28.30;99.90;;;;;;5074586;28;20439;-69
2021/06/23 09:27:44;;;;;;;4.77;2.70;;;28.50;99.90;;;;;;5074476;28;20450;-68
2021/06/23 09:30:29;;;;;;;4.50;3.27;;;28.30;99.90;;;;;;5073411;28;20460;-71
2021/06/23 09:33:14;;;;;;;4.00;3.57;;;27.90;99.90;;;;;;5074334;28;20414;-70
2021/06/23 09:36:01;;;;;;;4.23;3.00;;;27.70;99.90;;;;;;5072731;28;21002;-72
2021/06/23 09:38:41;;;;;;;3.23;3.00;;;27.40;99.90;;;;;;5073485;28;20427;-70
2021/06/23 09:41:22;;;;;;;3.63;3.37;;;27.10;99.90;;;;;;5074234;28;20473;-71
2021/06/23 09:43:53;;;;;;;3.33;3.10;;;27.00;99.90;;;;;;5074489;28;20419;-70
2021/06/23 09:46:19;;;;;;;5.17;3.63;;;26.80;99.90;;;;;;5085690;22;20480;-65
2021/06/23 09:48:46;;;;;;;3.53;3.33;;;26.60;99.90;;;;;;5052937;28;20412;-65
2021/06/23 09:51:17;;;;;;;4.20;3.70;;;26.40;99.90;;;;;;5053949;28;20162;-65
2021/06/23 09:53:43;;;;;;;3.97;3.67;;;26.20;99.90;;;;;;5053939;28;20546;-65
2021/06/23 09:56:33;;;;;;;3.03;2.83;;;26.30;99.90;;;;;;5053747;28;20499;-65
2021/06/23 09:59:00;;;;;;;4.30;3.40;;;26.10;99.90;;;;;;5053398;28;20188;-66
2021/06/23 10:01:26;;;;;;;4.37;3.07;;;25.90;99.90;;;;;;5053844;28;20424;-64
2021/06/23 10:04:10;;;;;;;7.27;3.80;;;26.20;99.90;;;;;;5053519;28;20452;-65
2021/06/23 10:06:37;;;;;;;3.43;3.13;;;25.90;99.90;;;;;;5052581;28;20467;-66
2021/06/23 10:09:25;;;;;;;6.00;4.13;;;26.00;99.90;;;;;;5053284;28;20424;-64
2021/06/23 10:12:02;;;;;;;4.47;3.40;;;26.40;99.90;;;;;;5053717;28;20495;-64
2021/06/23 10:14:32;;;;;;;3.43;3.20;;;26.50;99.90;;;;;;5053318;28;20439;-66
2021/06/23 10:17:00;;;;;;;3.43;2.90;;;26.90;99.90;;;;;;5053519;28;20561;-67
2021/06/23 10:19:27;;;;;;;3.23;2.93;;;27.50;99.90;;;;;;5053019;28;20420;-67
2021/06/23 10:21:54;;;;;;;3.23;2.37;;;28.50;99.90;;;;;;5053471;28;20428;-67
2021/06/23 10:24:20;;;;;;;3.50;3.23;;;28.90;99.90;;;;;;5035486;28;20466;-67
2021/06/23 10:26:49;;;;;;;3.83;2.90;;;28.80;99.90;;;;;;5035163;28;20494;-67
2021/06/23 10:29:19;;;;;;;2.40;2.30;;;29.70;99.90;;;;;;5053039;28;20694;-67
2021/06/23 10:31:46;;;;;;;2.67;2.47;;;30.80;98.50;;;;;;5053270;28;20412;-67
2021/06/23 10:34:11;;;;;;;2.57;2.37;;;32.70;95.60;;;;;;5053116;28;20923;-64
2021/06/23 10:36:37;;;;;;;2.40;2.30;;;33.30;93.80;;;;;;5053031;28;20444;-65
2021/06/23 10:39:05;;;;;;;3.60;3.40;;;32.80;92.70;;;;;;5052858;28;20177;-64
2021/06/23 10:41:39;;;;;;;3.30;3.00;;;31.80;93.20;;;;;;5052853;28;20427;-65
2021/06/23 10:44:19;;;;;;;2.23;2.13;;;31.60;93.50;;;;;;5053026;28;20411;-65
2021/06/23 10:46:47;;;;;;;2.53;2.33;;;31.90;92.20;;;;;;5052701;28;20811;-65
2021/06/23 10:49:16;;;;;;;1.80;1.70;;;32.80;90.00;;;;;;5052554;28;20423;-65
2021/06/23 10:51:42;;;;;;;2.10;1.83;;;34.60;86.30;;;;;;5052365;28;21035;-65
2021/06/23 10:54:31;;;;;;;2.70;1.63;;;36.50;77.10;;;;;;5052148;28;20511;-64
2021/06/23 10:56:57;;;;;;;1.67;1.10;;;37.00;63.10;;;;;;5047937;28;20194;-65
2021/06/23 10:59:33;;;;;;;1.50;1.40;;;36.50;59.20;;;;;;5050669;28;20420;-65
2021/06/23 11:02:13;;;;;;;1.93;1.30;;;36.60;56.50;;;;;;5052711;28;20184;-64
2021/06/23 11:04:57;;;;;;;1.60;1.50;;;35.80;55.70;;;;;;5052745;28;20416;-65
2021/06/23 11:07:41;;;;;;;1.40;1.30;;;35.20;56.40;;;;;;5051812;28;20990;-64
2021/06/23 11:10:12;;;;;;;1.00;1.00;;;36.10;56.30;;;;;;5052358;28;20408;-64
2021/06/23 11:12:49;;;;;;;1.37;1.37;;;35.90;53.80;;;;;;5052304;28;20450;-64
2021/06/23 11:15:20;;;;;;;1.40;1.30;;;36.60;53.30;;;;;;5045655;28;20514;-65
2021/06/23 11:17:47;;;;;;;1.90;1.10;;;37.50;50.50;;;;;;5032394;28;20412;-64
2021/06/23 11:20:19;;;;;;;1.60;1.17;;;37.10;49.20;;;;;;5032018;28;20421;-65
2021/06/23 11:22:56;;;;;;;1.17;1.00;;;36.50;50.30;;;;;;5033009;28;20420;-64
2021/06/23 11:25:33;;;;;;;1.83;1.73;;;36.60;50.10;;;;;;5032321;28;20503;-65
2021/06/23 11:28:08;;;;;;;0.80;0.80;;;36.80;48.60;;;;;;5049503;28;20471;-65
2021/06/23 11:31:06;;;;;;;1.73;1.10;;;36.80;48.80;;;;;;5051967;28;20419;-64
2021/06/23 11:33:37;;;;;;;1.80;1.70;;;36.50;48.10;;;;;;5031938;28;20512;-65
2021/06/23 11:36:08;;;;;;;1.40;1.10;;;37.30;47.40;;;;;;5032043;28;21020;-65
2021/06/23 11:38:34;;;;;;;1.17;1.00;;;38.90;45.90;;;;;;5031800;28;20428;-65
2021/06/23 11:41:01;;;;;;;1.20;1.10;;;36.40;47.10;;;;;;5032163;28;20870;-65
2021/06/23 11:43:27;;;;;;;1.00;0.87;;;35.10;48.80;;;;;;5031926;28;20478;-65
2021/06/23 11:45:53;;;;;;;1.20;1.20;;;35.20;48.00;;;;;;5031683;28;20961;-65
2021/06/23 11:48:19;;;;;;;1.83;1.73;;;35.50;48.30;;;;;;5031651;28;20434;-65
2021/06/23 11:50:46;;;;;;;1.27;1.17;;;34.50;48.10;;;;;;5031826;28;20201;-65
2021/06/23 11:53:16;;;;;;;1.07;1.07;;;35.60;48.40;;;;;;5031740;28;20434;-65
2021/06/23 11:55:43;;;;;;;1.30;1.20;;;36.90;47.20;;;;;;5031749;28;20540;-65
2021/06/23 11:58:09;;;;;;;1.03;1.03;;;36.90;45.50;;;;;;5043687;28;20486;-64
2021/06/23 12:00:37;;;;;;;1.83;1.50;;;36.20;47.00;;;;;;5031424;28;20896;-64
2021/06/23 12:03:05;;;;;;;1.37;1.17;;;35.80;46.80;;;;;;5031767;28;20425;-64
2021/06/23 12:05:31;;;;;;;1.27;1.17;;;37.10;46.70;;;;;;5032431;28;20452;-64
2021/06/23 12:07:57;;;;;;;1.17;1.07;;;38.60;46.10;;;;;;5031793;28;20468;-65
2021/06/23 12:10:25;;;;;;;2.00;1.90;;;37.90;45.30;;;;;;5031447;28;20178;-66
2021/06/23 12:12:51;;;;;;;1.53;1.20;;;38.50;46.70;;;;;;5031790;28;20417;-66
2021/06/23 12:15:20;;;;;;;1.93;1.10;;;38.60;46.10;;;;;;5043812;28;20470;-65
2021/06/23 12:17:46;;;;;;;2.40;1.07;;;38.20;46.50;;;;;;5033709;28;20443;-65
2021/06/23 12:20:13;;;;;;;1.37;1.27;;;36.90;47.60;;;;;;5051616;28;20434;-64
2021/06/23 12:22:38;;;;;;;1.73;1.63;;;37.50;47.40;;;;;;5051678;28;20782;-64
2021/06/23 12:25:09;;;;;;;1.40;1.30;;;37.70;46.50;;;;;;5051553;28;20510;-65
2021/06/23 12:27:36;;;;;;;1.00;1.00;;;39.20;45.90;;;;;;5051206;28;20229;-64
2021/06/23 12:30:03;;;;;;;1.20;1.20;;;40.50;43.70;;;;;;5051215;28;20424;-64
2021/06/23 12:32:29;;;;;;;1.10;1.10;;;39.60;43.40;;;;;;5051677;28;20418;-64
2021/06/23 12:34:55;;;;;;;0.90;0.90;;;39.70;43.80;;;;;;5051539;28;20866;-65
2021/06/23 12:37:20;;;;;;;2.20;1.30;;;39.70;42.50;;;;;;5051832;28;20256;-64
2021/06/23 12:39:46;;;;;;;1.20;1.20;;;40.10;42.90;;;;;;5051168;28;20213;-64
2021/06/23 12:42:11;;;;;;;1.17;1.17;;;40.50;44.10;;;;;;5051384;28;20178;-65
2021/06/23 12:44:37;;;;;;;1.20;1.20;;;39.00;44.00;;;;;;5051474;28;20170;-63
2021/06/23 12:47:06;;;;;;;1.60;1.50;;;36.30;45.40;;;;;;5051119;28;20217;-64
2021/06/23 12:49:32;;;;;;;1.00;1.00;;;35.00;47.40;;;;;;5051310;28;20178;-63
2021/06/23 12:51:58;;;;;;;1.50;1.40;;;33.80;47.70;;;;;;5051263;28;20470;-64
2021/06/23 12:54:28;;;;;;;1.37;1.27;;;32.70;49.90;;;;;;5051349;28;20412;-65
2021/06/23 12:56:53;;;;;;;1.13;1.13;;;31.70;50.50;;;;;;5051031;28;20847;-64
2021/06/23 12:59:19;;;;;;;1.27;1.10;;;31.70;51.80;;;;;;5033207;28;20485;-64
2021/06/23 13:01:45;;;;;;;1.20;1.03;;;32.50;50.40;;;;;;5030977;28;20216;-63
2021/06/23 13:04:10;;;;;;;1.63;1.30;;;32.90;50.30;;;;;;5031009;28;20182;-63
2021/06/23 13:06:37;;;;;;;1.63;1.40;;;32.50;50.50;;;;;;5033318;28;20256;-64